sensor_id;sensor_type;location;lat;lon;timestamp;P1;durP1;ratioP1;P2;durP2;ratioP2
9541;SDS011;4809;48.224;8.572;2022-08-20T00:00:43;11.05;;;9.95;;
9541;SDS011;4809;48.224;8.572;2022-08-20T00:03:22;10.77;;;9.52;;
9541;SDS011;4809;48.224;8.572;2022-08-20T00:05:57;9.52;;;8.63;;
9541;SDS011;4809;48.224;8.572;2022-08-20T00:08:23;9.50;;;8.60;;
9541;SDS011;4809;48.224;8.572;2022-08-20T00:10:50;9.75;;;8.75;;
9541;SDS011;4809;48.224;8.572;2022-08-20T00:13:19;10.77;;;8.93;;
9541;SDS011;4809;48.224;8.572;2022-08-20T00:15:47;9.60;;;8.70;;
9541;SDS011;4809;48.224;8.572;2022-08-20T00:18:13;9.23;;;8.32;;
9541;SDS011;4809;48.224;8.572;2022-08-20T00:20:42;8.93;;;8.10;;
9541;SDS011;4809;48.224;8.572;2022-08-20T00:23:10;9.45;;;8.55;;
9541;SDS011;4809;48.224;8.572;2022-08-20T00:25:36;9.35;;;7.75;;
9541;SDS011;4809;48.224;8.572;2022-08-20T00:28:02;8.55;;;7.72;;
9541;SDS011;4809;48.224;8.572;2022-08-20T00:30:31;8.57;;;7.78;;
9541;SDS011;4809;48.224;8.572;2022-08-20T00:33:00;10.50;;;8.70;;
9541;SDS011;4809;48.224;8.572;2022-08-20T00:35:31;9.38;;;8.48;;
9541;SDS011;4809;48.224;8.572;2022-08-20T00:37:59;9.93;;;8.95;;
9541;SDS011;4809;48.224;8.572;2022-08-20T00:40:26;10.00;;;9.00;;
9541;SDS011;4809;48.224;8.572;2022-08-20T00:42:56;9.65;;;8.75;;
9541;SDS011;4809;48.224;8.572;2022-08-20T00:45:24;10.93;;;9.82;;
9541;SDS011;4809;48.224;8.572;2022-08-20T00:47:51;10.98;;;9.90;;
9541;SDS011;4809;48.224;8.572;2022-08-20T00:50:20;10.20;;;9.20;;
9541;SDS011;4809;48.224;8.572;2022-08-20T00:53:01;9.68;;;8.73;;
9541;SDS011;4809;48.224;8.572;2022-08-20T00:55:30;9.40;;;8.50;;
9541;SDS011;4809;48.224;8.572;2022-08-20T00:57:58;8.90;;;8.00;;
9541;SDS011;4809;48.224;8.572;2022-08-20T01:02:54;8.27;;;7.47;;
9541;SDS011;4809;48.224;8.572;2022-08-20T01:05:21;9.07;;;8.25;;
9541;SDS011;4809;48.224;8.572;2022-08-20T01:07:47;8.65;;;7.65;;
9541;SDS011;4809;48.224;8.572;2022-08-20T01:10:37;9.50;;;8.50;;
9541;SDS011;4809;48.224;8.572;2022-08-20T01:13:04;9.55;;;8.55;;
9541;SDS011;4809;48.224;8.572;2022-08-20T01:15:35;8.93;;;8.02;;
9541;SDS011;4809;48.224;8.572;2022-08-20T01:18:06;9.27;;;8.38;;
9541;SDS011;4809;48.224;8.572;2022-08-20T01:20:42;8.48;;;7.63;;
9541;SDS011;4809;48.224;8.572;2022-08-20T01:26:02;8.32;;;7.53;;
9541;SDS011;4809;48.224;8.572;2022-08-20T01:28:44;9.35;;;8.15;;
9541;SDS011;4809;48.224;8.572;2022-08-20T01:31:14;7.80;;;6.97;;
9541;SDS011;4809;48.224;8.572;2022-08-20T01:33:43;7.63;;;6.30;;
9541;SDS011;4809;48.224;8.572;2022-08-20T01:36:10;7.60;;;6.75;;
9541;SDS011;4809;48.224;8.572;2022-08-20T01:38:36;7.50;;;6.70;;
9541;SDS011;4809;48.224;8.572;2022-08-20T01:41:21;7.40;;;6.28;;
9541;SDS011;4809;48.224;8.572;2022-08-20T01:43:57;7.60;;;6.50;;
9541;SDS011;4809;48.224;8.572;2022-08-20T01:46:27;6.78;;;6.07;;
9541;SDS011;4809;48.224;8.572;2022-08-20T01:48:57;7.43;;;6.30;;
9541;SDS011;4809;48.224;8.572;2022-08-20T01:51:26;7.47;;;6.57;;
9541;SDS011;4809;48.224;8.572;2022-08-20T01:53:54;6.80;;;6.15;;
9541;SDS011;4809;48.224;8.572;2022-08-20T01:56:25;7.40;;;6.63;;
9541;SDS011;4809;48.224;8.572;2022-08-20T01:58:54;6.80;;;6.10;;
9541;SDS011;4809;48.224;8.572;2022-08-20T02:01:24;6.90;;;6.20;;
9541;SDS011;4809;48.224;8.572;2022-08-20T02:03:50;7.03;;;6.32;;
9541;SDS011;4809;48.224;8.572;2022-08-20T02:06:19;6.90;;;6.05;;
9541;SDS011;4809;48.224;8.572;2022-08-20T02:08:49;6.47;;;5.82;;
9541;SDS011;4809;48.224;8.572;2022-08-20T02:11:17;6.68;;;5.93;;
9541;SDS011;4809;48.224;8.572;2022-08-20T02:13:43;6.68;;;5.88;;
9541;SDS011;4809;48.224;8.572;2022-08-20T02:16:08;6.65;;;5.40;;
9541;SDS011;4809;48.224;8.572;2022-08-20T02:18:34;6.00;;;5.40;;
9541;SDS011;4809;48.224;8.572;2022-08-20T02:21:01;5.97;;;5.20;;
9541;SDS011;4809;48.224;8.572;2022-08-20T02:23:27;6.18;;;5.55;;
9541;SDS011;4809;48.224;8.572;2022-08-20T02:25:53;5.63;;;5.10;;
9541;SDS011;4809;48.224;8.572;2022-08-20T02:28:19;5.75;;;5.15;;
9541;SDS011;4809;48.224;8.572;2022-08-20T02:30:47;6.18;;;5.55;;
9541;SDS011;4809;48.224;8.572;2022-08-20T02:33:16;6.28;;;5.68;;
9541;SDS011;4809;48.224;8.572;2022-08-20T02:35:45;6.40;;;5.80;;
9541;SDS011;4809;48.224;8.572;2022-08-20T02:38:12;6.03;;;5.28;;
9541;SDS011;4809;48.224;8.572;2022-08-20T02:40:39;6.22;;;5.47;;
9541;SDS011;4809;48.224;8.572;2022-08-20T02:43:08;7.85;;;6.13;;
9541;SDS011;4809;48.224;8.572;2022-08-20T02:45:34;6.88;;;6.00;;
9541;SDS011;4809;48.224;8.572;2022-08-20T02:48:07;6.85;;;6.15;;
9541;SDS011;4809;48.224;8.572;2022-08-20T02:50:34;7.63;;;6.90;;
9541;SDS011;4809;48.224;8.572;2022-08-20T02:52:59;7.55;;;6.68;;
9541;SDS011;4809;48.224;8.572;2022-08-20T02:55:25;7.78;;;7.07;;
9541;SDS011;4809;48.224;8.572;2022-08-20T02:57:51;7.97;;;7.18;;
9541;SDS011;4809;48.224;8.572;2022-08-20T03:00:20;7.80;;;7.00;;
9541;SDS011;4809;48.224;8.572;2022-08-20T03:02:46;7.95;;;7.15;;
9541;SDS011;4809;48.224;8.572;2022-08-20T03:05:12;8.00;;;7.22;;
9541;SDS011;4809;48.224;8.572;2022-08-20T03:07:49;7.43;;;6.72;;
9541;SDS011;4809;48.224;8.572;2022-08-20T03:10:27;6.95;;;6.35;;
9541;SDS011;4809;48.224;8.572;2022-08-20T03:12:56;7.72;;;6.88;;
9541;SDS011;4809;48.224;8.572;2022-08-20T03:15:23;7.82;;;7.03;;
9541;SDS011;4809;48.224;8.572;2022-08-20T03:17:49;7.57;;;6.72;;
9541;SDS011;4809;48.224;8.572;2022-08-20T03:20:15;7.53;;;6.82;;
9541;SDS011;4809;48.224;8.572;2022-08-20T03:22:41;7.07;;;6.38;;
9541;SDS011;4809;48.224;8.572;2022-08-20T03:25:07;7.55;;;6.68;;
9541;SDS011;4809;48.224;8.572;2022-08-20T03:27:34;7.10;;;6.25;;
9541;SDS011;4809;48.224;8.572;2022-08-20T03:29:59;6.80;;;6.20;;
9541;SDS011;4809;48.224;8.572;2022-08-20T03:32:25;7.10;;;6.40;;
9541;SDS011;4809;48.224;8.572;2022-08-20T03:34:51;7.32;;;6.63;;
9541;SDS011;4809;48.224;8.572;2022-08-20T03:37:16;7.13;;;6.43;;
9541;SDS011;4809;48.224;8.572;2022-08-20T03:39:42;7.30;;;6.60;;
9541;SDS011;4809;48.224;8.572;2022-08-20T03:42:07;7.30;;;6.25;;
9541;SDS011;4809;48.224;8.572;2022-08-20T03:44:33;7.28;;;6.53;;
9541;SDS011;4809;48.224;8.572;2022-08-20T03:47:02;7.57;;;6.35;;
9541;SDS011;4809;48.224;8.572;2022-08-20T03:49:33;6.78;;;6.18;;
9541;SDS011;4809;48.224;8.572;2022-08-20T03:52:00;6.53;;;5.93;;
9541;SDS011;4809;48.224;8.572;2022-08-20T03:54:27;6.60;;;5.90;;
9541;SDS011;4809;48.224;8.572;2022-08-20T03:56:53;7.68;;;6.97;;
9541;SDS011;4809;48.224;8.572;2022-08-20T03:59:20;7.85;;;7.00;;
9541;SDS011;4809;48.224;8.572;2022-08-20T04:01:45;7.50;;;6.63;;
9541;SDS011;4809;48.224;8.572;2022-08-20T04:04:11;8.10;;;7.30;;
9541;SDS011;4809;48.224;8.572;2022-08-20T04:06:37;9.07;;;8.18;;
9541;SDS011;4809;48.224;8.572;2022-08-20T04:09:03;9.77;;;8.27;;
9541;SDS011;4809;48.224;8.572;2022-08-20T04:11:29;8.52;;;7.70;;
9541;SDS011;4809;48.224;8.572;2022-08-20T04:13:57;8.23;;;7.43;;
9541;SDS011;4809;48.224;8.572;2022-08-20T04:16:23;8.70;;;7.45;;
9541;SDS011;4809;48.224;8.572;2022-08-20T04:18:48;8.60;;;7.70;;
9541;SDS011;4809;48.224;8.572;2022-08-20T04:21:14;8.90;;;7.72;;
9541;SDS011;4809;48.224;8.572;2022-08-20T04:23:40;8.77;;;7.88;;
9541;SDS011;4809;48.224;8.572;2022-08-20T04:26:06;7.78;;;7.05;;
9541;SDS011;4809;48.224;8.572;2022-08-20T04:28:32;7.82;;;6.90;;
9541;SDS011;4809;48.224;8.572;2022-08-20T04:30:58;9.23;;;7.53;;
9541;SDS011;4809;48.224;8.572;2022-08-20T04:33:26;7.20;;;6.50;;
9541;SDS011;4809;48.224;8.572;2022-08-20T04:35:56;7.35;;;6.32;;
9541;SDS011;4809;48.224;8.572;2022-08-20T04:38:24;7.25;;;6.15;;
9541;SDS011;4809;48.224;8.572;2022-08-20T04:40:51;6.95;;;6.18;;
9541;SDS011;4809;48.224;8.572;2022-08-20T04:43:29;7.18;;;6.43;;
9541;SDS011;4809;48.224;8.572;2022-08-20T04:45:58;7.10;;;6.35;;
9541;SDS011;4809;48.224;8.572;2022-08-20T04:48:26;6.50;;;5.90;;
9541;SDS011;4809;48.224;8.572;2022-08-20T04:50:53;6.95;;;6.18;;
9541;SDS011;4809;48.224;8.572;2022-08-20T04:53:20;7.25;;;5.63;;
9541;SDS011;4809;48.224;8.572;2022-08-20T04:55:48;6.13;;;5.53;;
9541;SDS011;4809;48.224;8.572;2022-08-20T04:58:15;6.40;;;5.47;;
9541;SDS011;4809;48.224;8.572;2022-08-20T05:00:44;6.50;;;5.78;;
9541;SDS011;4809;48.224;8.572;2022-08-20T05:03:21;6.15;;;5.10;;
9541;SDS011;4809;48.224;8.572;2022-08-20T05:05:47;6.55;;;5.85;;
9541;SDS011;4809;48.224;8.572;2022-08-20T05:08:15;6.38;;;5.70;;
9541;SDS011;4809;48.224;8.572;2022-08-20T05:10:42;6.07;;;5.47;;
9541;SDS011;4809;48.224;8.572;2022-08-20T05:13:09;6.35;;;5.68;;
9541;SDS011;4809;48.224;8.572;2022-08-20T05:15:35;6.07;;;5.50;;
9541;SDS011;4809;48.224;8.572;2022-08-20T05:18:02;7.15;;;6.45;;
9541;SDS011;4809;48.224;8.572;2022-08-20T05:20:32;7.03;;;6.00;;
9541;SDS011;4809;48.224;8.572;2022-08-20T05:23:03;7.50;;;6.47;;
9541;SDS011;4809;48.224;8.572;2022-08-20T05:25:29;6.38;;;5.78;;
9541;SDS011;4809;48.224;8.572;2022-08-20T05:27:59;6.20;;;5.47;;
9541;SDS011;4809;48.224;8.572;2022-08-20T05:30:28;6.63;;;5.93;;
9541;SDS011;4809;48.224;8.572;2022-08-20T05:33:00;6.90;;;6.20;;
9541;SDS011;4809;48.224;8.572;2022-08-20T05:35:27;7.47;;;6.28;;
9541;SDS011;4809;48.224;8.572;2022-08-20T05:37:54;7.03;;;6.32;;
9541;SDS011;4809;48.224;8.572;2022-08-20T05:40:21;8.70;;;7.28;;
9541;SDS011;4809;48.224;8.572;2022-08-20T05:42:48;8.55;;;7.75;;
9541;SDS011;4809;48.224;8.572;2022-08-20T05:45:15;8.95;;;7.57;;
9541;SDS011;4809;48.224;8.572;2022-08-20T05:47:42;8.20;;;7.15;;
9541;SDS011;4809;48.224;8.572;2022-08-20T05:50:08;8.20;;;7.40;;
9541;SDS011;4809;48.224;8.572;2022-08-20T05:52:37;8.13;;;7.07;;
9541;SDS011;4809;48.224;8.572;2022-08-20T05:55:04;8.55;;;7.75;;
9541;SDS011;4809;48.224;8.572;2022-08-20T05:57:31;7.82;;;7.03;;
9541;SDS011;4809;48.224;8.572;2022-08-20T05:59:58;8.02;;;6.38;;
9541;SDS011;4809;48.224;8.572;2022-08-20T06:02:26;6.65;;;6.05;;
9541;SDS011;4809;48.224;8.572;2022-08-20T06:05:11;7.13;;;5.95;;
9541;SDS011;4809;48.224;8.572;2022-08-20T06:07:37;7.03;;;5.60;;
9541;SDS011;4809;48.224;8.572;2022-08-20T06:10:03;8.90;;;6.05;;
9541;SDS011;4809;48.224;8.572;2022-08-20T06:12:30;6.80;;;6.07;;
9541;SDS011;4809;48.224;8.572;2022-08-20T06:14:56;6.47;;;5.88;;
9541;SDS011;4809;48.224;8.572;2022-08-20T06:17:22;6.55;;;5.85;;
9541;SDS011;4809;48.224;8.572;2022-08-20T06:19:48;7.05;;;6.35;;
9541;SDS011;4809;48.224;8.572;2022-08-20T06:22:15;8.07;;;7.03;;
9541;SDS011;4809;48.224;8.572;2022-08-20T06:24:41;7.53;;;6.53;;
9541;SDS011;4809;48.224;8.572;2022-08-20T06:27:06;7.85;;;6.45;;
9541;SDS011;4809;48.224;8.572;2022-08-20T06:29:36;6.82;;;6.00;;
9541;SDS011;4809;48.224;8.572;2022-08-20T06:32:02;8.48;;;6.90;;
9541;SDS011;4809;48.224;8.572;2022-08-20T06:34:28;7.60;;;6.20;;
9541;SDS011;4809;48.224;8.572;2022-08-20T06:36:54;7.07;;;6.30;;
9541;SDS011;4809;48.224;8.572;2022-08-20T06:39:21;6.70;;;6.00;;
9541;SDS011;4809;48.224;8.572;2022-08-20T06:41:47;5.90;;;5.35;;
9541;SDS011;4809;48.224;8.572;2022-08-20T06:44:13;6.18;;;5.40;;
9541;SDS011;4809;48.224;8.572;2022-08-20T06:46:39;7.85;;;6.90;;
9541;SDS011;4809;48.224;8.572;2022-08-20T06:49:05;8.40;;;7.60;;
9541;SDS011;4809;48.224;8.572;2022-08-20T06:51:32;8.95;;;8.05;;
9541;SDS011;4809;48.224;8.572;2022-08-20T06:53:58;7.53;;;6.82;;
9541;SDS011;4809;48.224;8.572;2022-08-20T06:56:24;8.55;;;7.00;;
9541;SDS011;4809;48.224;8.572;2022-08-20T06:58:50;8.25;;;7.15;;
9541;SDS011;4809;48.224;8.572;2022-08-20T07:01:16;8.13;;;6.80;;
9541;SDS011;4809;48.224;8.572;2022-08-20T07:03:45;6.95;;;6.30;;
9541;SDS011;4809;48.224;8.572;2022-08-20T07:06:12;8.25;;;7.00;;
9541;SDS011;4809;48.224;8.572;2022-08-20T07:08:40;7.55;;;6.18;;
9541;SDS011;4809;48.224;8.572;2022-08-20T07:11:07;6.57;;;5.88;;
9541;SDS011;4809;48.224;8.572;2022-08-20T07:13:33;6.35;;;5.68;;
9541;SDS011;4809;48.224;8.572;2022-08-20T07:16:02;7.18;;;6.45;;
9541;SDS011;4809;48.224;8.572;2022-08-20T07:18:28;6.75;;;6.05;;
9541;SDS011;4809;48.224;8.572;2022-08-20T07:20:55;6.50;;;5.90;;
9541;SDS011;4809;48.224;8.572;2022-08-20T07:23:22;6.63;;;5.45;;
9541;SDS011;4809;48.224;8.572;2022-08-20T07:25:48;6.43;;;5.30;;
9541;SDS011;4809;48.224;8.572;2022-08-20T07:28:16;5.88;;;5.28;;
9541;SDS011;4809;48.224;8.572;2022-08-20T07:30:46;6.80;;;5.75;;
9541;SDS011;4809;48.224;8.572;2022-08-20T07:33:31;6.03;;;5.43;;
9541;SDS011;4809;48.224;8.572;2022-08-20T07:35:58;6.95;;;5.88;;
9541;SDS011;4809;48.224;8.572;2022-08-20T07:38:26;6.80;;;5.72;;
9541;SDS011;4809;48.224;8.572;2022-08-20T07:40:58;6.10;;;5.47;;
9541;SDS011;4809;48.224;8.572;2022-08-20T07:43:26;7.07;;;5.43;;
9541;SDS011;4809;48.224;8.572;2022-08-20T07:45:53;6.22;;;5.57;;
9541;SDS011;4809;48.224;8.572;2022-08-20T07:48:21;6.07;;;5.47;;
9541;SDS011;4809;48.224;8.572;2022-08-20T07:50:53;6.38;;;5.10;;
9541;SDS011;4809;48.224;8.572;2022-08-20T07:53:20;6.70;;;5.43;;
9541;SDS011;4809;48.224;8.572;2022-08-20T07:55:45;4.25;;;3.88;;
9541;SDS011;4809;48.224;8.572;2022-08-20T07:58:12;3.47;;;3.17;;
9541;SDS011;4809;48.224;8.572;2022-08-20T08:00:39;3.75;;;3.20;;
9541;SDS011;4809;48.224;8.572;2022-08-20T08:03:06;3.15;;;2.90;;
9541;SDS011;4809;48.224;8.572;2022-08-20T08:05:34;3.25;;;2.95;;
9541;SDS011;4809;48.224;8.572;2022-08-20T08:08:03;3.35;;;3.10;;
9541;SDS011;4809;48.224;8.572;2022-08-20T08:10:35;5.50;;;5.00;;
9541;SDS011;4809;48.224;8.572;2022-08-20T08:13:02;4.15;;;3.80;;
9541;SDS011;4809;48.224;8.572;2022-08-20T08:15:31;3.85;;;3.55;;
9541;SDS011;4809;48.224;8.572;2022-08-20T08:18:08;4.32;;;3.92;;
9541;SDS011;4809;48.224;8.572;2022-08-20T08:20:38;4.40;;;4.00;;
9541;SDS011;4809;48.224;8.572;2022-08-20T08:23:06;5.63;;;3.92;;
9541;SDS011;4809;48.224;8.572;2022-08-20T08:25:36;4.80;;;4.40;;
9541;SDS011;4809;48.224;8.572;2022-08-20T08:28:09;5.50;;;4.88;;
9541;SDS011;4809;48.224;8.572;2022-08-20T08:30:41;5.40;;;4.90;;
9541;SDS011;4809;48.224;8.572;2022-08-20T08:33:28;5.20;;;4.70;;
9541;SDS011;4809;48.224;8.572;2022-08-20T08:36:14;5.85;;;4.93;;
9541;SDS011;4809;48.224;8.572;2022-08-20T08:38:41;5.30;;;4.80;;
9541;SDS011;4809;48.224;8.572;2022-08-20T08:43:50;5.60;;;4.95;;
9541;SDS011;4809;48.224;8.572;2022-08-20T08:46:19;5.60;;;5.10;;
9541;SDS011;4809;48.224;8.572;2022-08-20T08:48:51;5.78;;;4.70;;
9541;SDS011;4809;48.224;8.572;2022-08-20T08:51:27;7.53;;;5.22;;
9541;SDS011;4809;48.224;8.572;2022-08-20T08:53:59;8.00;;;4.88;;
9541;SDS011;4809;48.224;8.572;2022-08-20T08:56:27;5.03;;;4.53;;
9541;SDS011;4809;48.224;8.572;2022-08-20T08:58:59;5.68;;;4.53;;
9541;SDS011;4809;48.224;8.572;2022-08-20T09:01:29;4.85;;;4.30;;
9541;SDS011;4809;48.224;8.572;2022-08-20T09:03:57;6.50;;;4.30;;
9541;SDS011;4809;48.224;8.572;2022-08-20T09:06:23;5.28;;;3.60;;
9541;SDS011;4809;48.224;8.572;2022-08-20T09:08:55;4.47;;;3.70;;
9541;SDS011;4809;48.224;8.572;2022-08-20T09:11:25;5.60;;;3.60;;
9541;SDS011;4809;48.224;8.572;2022-08-20T09:13:52;4.20;;;3.50;;
9541;SDS011;4809;48.224;8.572;2022-08-20T09:16:21;4.13;;;3.35;;
9541;SDS011;4809;48.224;8.572;2022-08-20T09:18:48;4.05;;;3.40;;
9541;SDS011;4809;48.224;8.572;2022-08-20T09:21:14;5.82;;;3.50;;
9541;SDS011;4809;48.224;8.572;2022-08-20T09:23:41;4.50;;;3.58;;
9541;SDS011;4809;48.224;8.572;2022-08-20T09:26:07;6.38;;;4.43;;
9541;SDS011;4809;48.224;8.572;2022-08-20T09:28:32;4.75;;;4.05;;
9541;SDS011;4809;48.224;8.572;2022-08-20T09:30:59;5.43;;;4.20;;
9541;SDS011;4809;48.224;8.572;2022-08-20T09:33:24;4.30;;;3.88;;
9541;SDS011;4809;48.224;8.572;2022-08-20T09:35:50;4.30;;;3.45;;
9541;SDS011;4809;48.224;8.572;2022-08-20T09:38:16;6.00;;;4.07;;
9541;SDS011;4809;48.224;8.572;2022-08-20T09:40:42;4.90;;;4.40;;
9541;SDS011;4809;48.224;8.572;2022-08-20T09:43:08;3.92;;;3.63;;
9541;SDS011;4809;48.224;8.572;2022-08-20T09:45:34;4.32;;;3.70;;
9541;SDS011;4809;48.224;8.572;2022-08-20T09:48:00;4.70;;;3.78;;
9541;SDS011;4809;48.224;8.572;2022-08-20T09:50:28;4.07;;;3.67;;
9541;SDS011;4809;48.224;8.572;2022-08-20T09:52:56;4.40;;;4.00;;
9541;SDS011;4809;48.224;8.572;2022-08-20T09:55:27;4.30;;;3.90;;
9541;SDS011;4809;48.224;8.572;2022-08-20T09:57:55;3.70;;;3.40;;
9541;SDS011;4809;48.224;8.572;2022-08-20T10:00:21;4.80;;;3.58;;
9541;SDS011;4809;48.224;8.572;2022-08-20T10:02:47;3.83;;;3.53;;
9541;SDS011;4809;48.224;8.572;2022-08-20T10:05:13;3.80;;;3.50;;
9541;SDS011;4809;48.224;8.572;2022-08-20T10:07:39;3.80;;;3.50;;
9541;SDS011;4809;48.224;8.572;2022-08-20T10:10:06;3.50;;;3.20;;
9541;SDS011;4809;48.224;8.572;2022-08-20T10:12:33;3.28;;;2.97;;
9541;SDS011;4809;48.224;8.572;2022-08-20T10:14:58;3.13;;;2.83;;
9541;SDS011;4809;48.224;8.572;2022-08-20T10:17:24;2.97;;;2.72;;
9541;SDS011;4809;48.224;8.572;2022-08-20T10:19:50;2.88;;;2.65;;
9541;SDS011;4809;48.224;8.572;2022-08-20T10:22:16;2.80;;;2.60;;
9541;SDS011;4809;48.224;8.572;2022-08-20T10:24:44;3.65;;;2.35;;
9541;SDS011;4809;48.224;8.572;2022-08-20T10:27:09;2.20;;;2.10;;
9541;SDS011;4809;48.224;8.572;2022-08-20T10:29:38;2.63;;;2.40;;
9541;SDS011;4809;48.224;8.572;2022-08-20T10:32:08;2.53;;;2.40;;
9541;SDS011;4809;48.224;8.572;2022-08-20T10:34:36;2.40;;;2.20;;
9541;SDS011;4809;48.224;8.572;2022-08-20T10:37:03;2.92;;;2.72;;
9541;SDS011;4809;48.224;8.572;2022-08-20T10:39:29;2.05;;;1.95;;
9541;SDS011;4809;48.224;8.572;2022-08-20T10:41:55;2.28;;;2.17;;
9541;SDS011;4809;48.224;8.572;2022-08-20T10:44:20;2.47;;;2.30;;
9541;SDS011;4809;48.224;8.572;2022-08-20T10:46:46;1.90;;;1.80;;
9541;SDS011;4809;48.224;8.572;2022-08-20T10:49:12;1.90;;;1.80;;
9541;SDS011;4809;48.224;8.572;2022-08-20T10:51:37;1.50;;;1.50;;
9541;SDS011;4809;48.224;8.572;2022-08-20T10:54:06;1.83;;;1.73;;
9541;SDS011;4809;48.224;8.572;2022-08-20T10:56:31;1.40;;;1.40;;
9541;SDS011;4809;48.224;8.572;2022-08-20T10:58:57;1.00;;;1.00;;
9541;SDS011;4809;48.224;8.572;2022-08-20T11:01:23;1.00;;;1.00;;
9541;SDS011;4809;48.224;8.572;2022-08-20T11:03:48;1.00;;;1.00;;
9541;SDS011;4809;48.224;8.572;2022-08-20T11:06:14;1.10;;;1.10;;
9541;SDS011;4809;48.224;8.572;2022-08-20T11:08:40;1.00;;;1.00;;
9541;SDS011;4809;48.224;8.572;2022-08-20T11:11:05;0.90;;;0.90;;
9541;SDS011;4809;48.224;8.572;2022-08-20T11:13:32;1.13;;;1.13;;
9541;SDS011;4809;48.224;8.572;2022-08-20T11:15:58;0.50;;;0.50;;
9541;SDS011;4809;48.224;8.572;2022-08-20T11:18:28;0.90;;;0.90;;
9541;SDS011;4809;48.224;8.572;2022-08-20T11:21:00;0.47;;;0.47;;
9541;SDS011;4809;48.224;8.572;2022-08-20T11:23:26;0.50;;;0.50;;
9541;SDS011;4809;48.224;8.572;2022-08-20T11:25:52;0.40;;;0.40;;
9541;SDS011;4809;48.224;8.572;2022-08-20T11:28:18;0.68;;;0.68;;
9541;SDS011;4809;48.224;8.572;2022-08-20T11:30:43;1.48;;;0.95;;
9541;SDS011;4809;48.224;8.572;2022-08-20T11:33:10;1.25;;;1.25;;
9541;SDS011;4809;48.224;8.572;2022-08-20T11:35:36;2.10;;;2.00;;
9541;SDS011;4809;48.224;8.572;2022-08-20T11:38:02;1.58;;;1.48;;
9541;SDS011;4809;48.224;8.572;2022-08-20T11:40:28;1.20;;;1.20;;
9541;SDS011;4809;48.224;8.572;2022-08-20T11:42:55;1.60;;;1.50;;
9541;SDS011;4809;48.224;8.572;2022-08-20T11:45:21;1.30;;;1.30;;
9541;SDS011;4809;48.224;8.572;2022-08-20T11:47:46;1.50;;;1.40;;
9541;SDS011;4809;48.224;8.572;2022-08-20T11:50:17;1.45;;;1.23;;
9541;SDS011;4809;48.224;8.572;2022-08-20T11:52:44;1.70;;;1.60;;
9541;SDS011;4809;48.224;8.572;2022-08-20T11:55:10;1.58;;;1.52;;
9541;SDS011;4809;48.224;8.572;2022-08-20T11:57:42;1.23;;;1.20;;
9541;SDS011;4809;48.224;8.572;2022-08-20T12:00:10;1.58;;;1.48;;
9541;SDS011;4809;48.224;8.572;2022-08-20T12:02:39;1.55;;;1.45;;
9541;SDS011;4809;48.224;8.572;2022-08-20T12:05:06;1.70;;;1.60;;
9541;SDS011;4809;48.224;8.572;2022-08-20T12:07:32;1.60;;;1.50;;
9541;SDS011;4809;48.224;8.572;2022-08-20T12:09:58;1.42;;;1.38;;
9541;SDS011;4809;48.224;8.572;2022-08-20T12:12:23;1.60;;;1.50;;
9541;SDS011;4809;48.224;8.572;2022-08-20T12:14:50;1.40;;;1.30;;
9541;SDS011;4809;48.224;8.572;2022-08-20T12:17:18;1.20;;;1.20;;
9541;SDS011;4809;48.224;8.572;2022-08-20T12:19:48;1.75;;;1.20;;
9541;SDS011;4809;48.224;8.572;2022-08-20T12:22:15;1.30;;;1.30;;
9541;SDS011;4809;48.224;8.572;2022-08-20T12:24:40;1.60;;;1.50;;
9541;SDS011;4809;48.224;8.572;2022-08-20T12:27:17;1.50;;;1.40;;
9541;SDS011;4809;48.224;8.572;2022-08-20T12:29:47;5.40;;;4.30;;
9541;SDS011;4809;48.224;8.572;2022-08-20T12:32:17;1.30;;;1.30;;
9541;SDS011;4809;48.224;8.572;2022-08-20T12:34:45;1.90;;;1.80;;
9541;SDS011;4809;48.224;8.572;2022-08-20T12:37:13;1.70;;;1.60;;
9541;SDS011;4809;48.224;8.572;2022-08-20T12:39:42;1.35;;;1.30;;
9541;SDS011;4809;48.224;8.572;2022-08-20T12:42:09;1.00;;;1.00;;
9541;SDS011;4809;48.224;8.572;2022-08-20T12:44:35;1.30;;;1.30;;
9541;SDS011;4809;48.224;8.572;2022-08-20T12:49:53;0.70;;;0.70;;
9541;SDS011;4809;48.224;8.572;2022-08-20T12:52:25;0.70;;;0.70;;
9541;SDS011;4809;48.224;8.572;2022-08-20T12:54:52;0.55;;;0.50;;
9541;SDS011;4809;48.224;8.572;2022-08-20T12:59:47;0.50;;;0.50;;
9541;SDS011;4809;48.224;8.572;2022-08-20T13:02:13;0.60;;;0.60;;
9541;SDS011;4809;48.224;8.572;2022-08-20T13:04:41;0.75;;;0.75;;
9541;SDS011;4809;48.224;8.572;2022-08-20T13:07:09;0.75;;;0.50;;
9541;SDS011;4809;48.224;8.572;2022-08-20T13:09:36;1.08;;;0.82;;
9541;SDS011;4809;48.224;8.572;2022-08-20T13:12:01;2.00;;;1.80;;
9541;SDS011;4809;48.224;8.572;2022-08-20T13:14:27;2.35;;;2.10;;
9541;SDS011;4809;48.224;8.572;2022-08-20T13:16:54;0.65;;;0.65;;
9541;SDS011;4809;48.224;8.572;2022-08-20T13:19:21;0.40;;;0.40;;
9541;SDS011;4809;48.224;8.572;2022-08-20T13:21:47;0.70;;;0.70;;
9541;SDS011;4809;48.224;8.572;2022-08-20T13:24:13;1.00;;;1.00;;
9541;SDS011;4809;48.224;8.572;2022-08-20T13:26:39;0.70;;;0.70;;
9541;SDS011;4809;48.224;8.572;2022-08-20T13:29:04;0.77;;;0.77;;
9541;SDS011;4809;48.224;8.572;2022-08-20T13:31:30;0.70;;;0.70;;
9541;SDS011;4809;48.224;8.572;2022-08-20T13:33:56;0.80;;;0.80;;
9541;SDS011;4809;48.224;8.572;2022-08-20T13:36:21;0.80;;;0.80;;
9541;SDS011;4809;48.224;8.572;2022-08-20T13:38:47;1.10;;;1.10;;
9541;SDS011;4809;48.224;8.572;2022-08-20T13:41:13;3.05;;;2.85;;
9541;SDS011;4809;48.224;8.572;2022-08-20T13:43:38;1.30;;;1.30;;
9541;SDS011;4809;48.224;8.572;2022-08-20T13:46:04;9.32;;;8.50;;
9541;SDS011;4809;48.224;8.572;2022-08-20T13:48:30;2.70;;;1.90;;
9541;SDS011;4809;48.224;8.572;2022-08-20T13:50:57;2.45;;;2.20;;
9541;SDS011;4809;48.224;8.572;2022-08-20T13:53:23;2.40;;;1.88;;
9541;SDS011;4809;48.224;8.572;2022-08-20T13:55:49;1.50;;;1.50;;
9541;SDS011;4809;48.224;8.572;2022-08-20T13:58:15;1.90;;;1.80;;
9541;SDS011;4809;48.224;8.572;2022-08-20T14:00:42;2.22;;;1.80;;
9541;SDS011;4809;48.224;8.572;2022-08-20T14:03:08;2.30;;;2.10;;
9541;SDS011;4809;48.224;8.572;2022-08-20T14:05:34;1.85;;;1.75;;
9541;SDS011;4809;48.224;8.572;2022-08-20T14:08:11;2.00;;;1.90;;
9541;SDS011;4809;48.224;8.572;2022-08-20T14:10:45;2.03;;;1.92;;
9541;SDS011;4809;48.224;8.572;2022-08-20T14:13:14;1.80;;;1.70;;
9541;SDS011;4809;48.224;8.572;2022-08-20T14:15:41;1.90;;;1.70;;
9541;SDS011;4809;48.224;8.572;2022-08-20T14:18:08;1.75;;;1.63;;
9541;SDS011;4809;48.224;8.572;2022-08-20T14:20:34;1.90;;;1.80;;
9541;SDS011;4809;48.224;8.572;2022-08-20T14:23:00;2.00;;;1.90;;
9541;SDS011;4809;48.224;8.572;2022-08-20T14:25:26;2.08;;;1.80;;
9541;SDS011;4809;48.224;8.572;2022-08-20T14:27:53;1.90;;;1.80;;
9541;SDS011;4809;48.224;8.572;2022-08-20T14:30:21;2.08;;;1.98;;
9541;SDS011;4809;48.224;8.572;2022-08-20T14:32:49;1.75;;;1.67;;
9541;SDS011;4809;48.224;8.572;2022-08-20T14:35:15;1.70;;;1.60;;
9541;SDS011;4809;48.224;8.572;2022-08-20T14:37:41;1.60;;;1.60;;
9541;SDS011;4809;48.224;8.572;2022-08-20T14:40:11;1.80;;;1.70;;
9541;SDS011;4809;48.224;8.572;2022-08-20T14:42:39;1.90;;;1.80;;
9541;SDS011;4809;48.224;8.572;2022-08-20T14:45:06;1.75;;;1.65;;
9541;SDS011;4809;48.224;8.572;2022-08-20T14:47:39;1.67;;;1.58;;
9541;SDS011;4809;48.224;8.572;2022-08-20T14:50:29;2.00;;;1.83;;
9541;SDS011;4809;48.224;8.572;2022-08-20T14:52:56;1.70;;;1.60;;
9541;SDS011;4809;48.224;8.572;2022-08-20T14:55:23;2.50;;;1.52;;
9541;SDS011;4809;48.224;8.572;2022-08-20T14:57:52;1.45;;;1.38;;
9541;SDS011;4809;48.224;8.572;2022-08-20T15:00:20;1.50;;;1.40;;
9541;SDS011;4809;48.224;8.572;2022-08-20T15:02:47;1.27;;;1.27;;
9541;SDS011;4809;48.224;8.572;2022-08-20T15:05:13;1.30;;;1.30;;
9541;SDS011;4809;48.224;8.572;2022-08-20T15:07:41;2.28;;;2.10;;
9541;SDS011;4809;48.224;8.572;2022-08-20T15:10:11;1.50;;;1.40;;
9541;SDS011;4809;48.224;8.572;2022-08-20T15:12:42;1.77;;;1.50;;
9541;SDS011;4809;48.224;8.572;2022-08-20T15:15:09;1.80;;;1.70;;
9541;SDS011;4809;48.224;8.572;2022-08-20T15:17:37;2.08;;;1.98;;
9541;SDS011;4809;48.224;8.572;2022-08-20T15:20:04;1.92;;;1.75;;
9541;SDS011;4809;48.224;8.572;2022-08-20T15:22:38;1.60;;;1.50;;
9541;SDS011;4809;48.224;8.572;2022-08-20T15:25:06;1.40;;;1.40;;
9541;SDS011;4809;48.224;8.572;2022-08-20T15:27:34;1.45;;;1.30;;
9541;SDS011;4809;48.224;8.572;2022-08-20T15:30:04;1.55;;;1.40;;
9541;SDS011;4809;48.224;8.572;2022-08-20T15:32:32;1.30;;;1.20;;